createdAt,value
2019-04-23T00:02:26.538Z,26.30
2019-04-23T00:04:53.041Z,26.00
2019-04-23T00:07:40.077Z,25.80
2019-04-23T00:10:09.583Z,25.60
2019-04-23T00:12:38.079Z,26.00
2019-04-23T00:17:38.891Z,25.30
2019-04-23T00:20:10.044Z,25.10
2019-04-23T00:22:36.648Z,25.80
2019-04-23T00:27:50.362Z,25.50
2019-04-23T00:30:26.605Z,26.30
2019-04-23T00:33:01.520Z,25.80
2019-04-23T00:35:25.877Z,26.80
2019-04-23T00:38:06.530Z,26.30
2019-04-23T00:40:37.536Z,26.20
2019-04-23T00:43:02.062Z,25.30
2019-04-23T00:45:41.767Z,26.00
2019-04-23T00:48:02.312Z,25.40
2019-04-23T00:50:45.601Z,25.60
2019-04-23T00:53:12.699Z,26.10
2019-04-23T00:55:46.589Z,25.20
2019-04-23T01:03:17.510Z,26.10
2019-04-23T01:05:47.379Z,25.40
2019-04-23T01:08:18.478Z,25.80
2019-04-23T01:10:57.211Z,25.60
2019-04-23T01:15:59.685Z,26.10
2019-04-23T01:18:46.819Z,26.20
2019-04-23T01:20:54.710Z,25.70
2019-04-23T01:23:51.326Z,26.90
2019-04-23T01:26:35.543Z,25.50
2019-04-23T01:29:12.595Z,25.50
2019-04-23T01:31:46.055Z,25.90
2019-04-23T01:34:21.547Z,26.10
2019-04-23T01:36:48.672Z,26.20
2019-04-23T01:39:15.779Z,25.90
2019-04-23T01:44:24.001Z,26.20
2019-04-23T01:46:56.165Z,25.70
2019-04-23T01:49:30.905Z,26.10
2019-04-23T01:54:30.528Z,26.60
2019-04-23T01:57:04.047Z,26.70
2019-04-23T01:59:31.624Z,26.00
2019-04-23T02:02:08.274Z,26.80
2019-04-23T02:04:36.634Z,26.40
2019-04-23T02:07:06.236Z,26.10
2019-04-23T02:09:41.954Z,25.70
2019-04-23T02:12:11.081Z,26.10
2019-04-23T02:14:41.746Z,26.30
2019-04-23T02:17:29.830Z,26.40
2019-04-23T02:19:49.293Z,26.50
2019-04-23T02:22:25.315Z,26.40
2019-04-23T02:24:54.585Z,27.20
2019-04-23T02:27:29.709Z,26.10
2019-04-23T02:30:06.036Z,26.10
2019-04-23T02:32:29.718Z,27.40
2019-04-23T02:37:46.038Z,26.70
2019-04-23T02:40:17.586Z,26.20
2019-04-23T02:42:49.631Z,26.80
2019-04-23T02:45:09.601Z,26.30
2019-04-23T02:48:05.531Z,26.80
2019-04-23T02:50:36.755Z,27.10
2019-04-23T02:52:48.264Z,27.90
2019-04-23T02:55:17.722Z,27.00
2019-04-23T02:57:41.532Z,28.30
2019-04-23T03:02:49.869Z,27.80
2019-04-23T03:05:19.835Z,27.30
2019-04-23T03:08:02.202Z,27.60
2019-04-23T03:10:22.126Z,28.10
2019-04-23T03:18:39.237Z,28.70
2019-04-23T03:23:54.905Z,28.50
2019-04-23T03:26:27.204Z,29.80
2019-04-23T03:28:57.830Z,29.20
2019-04-23T03:34:01.062Z,29.50
2019-04-23T03:41:39.285Z,29.30
2019-04-23T03:43:46.813Z,29.50
2019-04-23T03:48:53.204Z,29.50
2019-04-23T03:56:44.712Z,28.70
2019-04-23T04:01:38.411Z,28.60
2019-04-23T04:06:45.453Z,29.90
2019-04-23T04:11:29.179Z,30.80
2019-04-23T04:14:20.757Z,29.80
2019-04-23T04:16:51.673Z,30.70
2019-04-23T04:19:26.359Z,30.60
2019-04-23T04:21:51.993Z,29.70
2019-04-23T04:24:36.954Z,30.20
2019-04-23T04:27:00.110Z,29.70
2019-04-23T04:29:35.096Z,30.30
2019-04-23T04:31:52.224Z,31.30
2019-04-23T04:37:27.163Z,30.00
2019-04-23T04:39:27.562Z,29.10
2019-04-23T04:44:43.366Z,30.30
2019-04-23T04:46:59.703Z,30.10
2019-04-23T04:49:42.576Z,30.70
2019-04-23T04:54:44.545Z,30.80
2019-04-23T04:57:10.279Z,30.80
2019-04-23T04:59:50.819Z,30.40
2019-04-23T05:04:52.542Z,30.60
2019-04-23T05:07:18.967Z,31.10
2019-04-23T05:12:19.184Z,32.40
2019-04-23T05:17:42.163Z,31.60
2019-04-23T05:20:05.778Z,30.60
2019-04-23T05:22:45.011Z,30.80
2019-04-23T05:24:58.600Z,31.00
2019-04-23T05:27:46.347Z,32.10
2019-04-23T05:30:15.247Z,31.10
2019-04-23T05:32:43.148Z,30.80
2019-04-23T05:35:15.114Z,33.50
2019-04-23T05:37:59.419Z,32.90
2019-04-23T05:40:25.359Z,33.50
2019-04-23T05:42:47.332Z,35.50
2019-04-23T05:45:16.932Z,33.70
2019-04-23T05:47:55.458Z,33.40
2019-04-23T05:50:26.035Z,32.20
2019-04-23T05:52:54.406Z,33.10
2019-04-23T05:55:20.089Z,31.90
2019-04-23T05:57:53.643Z,30.90
2019-04-23T06:00:28.107Z,34.10
2019-04-23T06:02:57.225Z,34.50
2019-04-23T06:05:30.580Z,35.20
2019-04-23T06:07:54.643Z,34.70
2019-04-23T06:10:34.321Z,33.30
2019-04-23T06:12:59.508Z,34.00
2019-04-23T06:15:34.548Z,35.60
2019-04-23T06:18:08.076Z,32.90
2019-04-23T06:20:45.393Z,33.20
2019-04-23T06:23:18.093Z,32.60
2019-04-23T06:28:12.761Z,34.40
2019-04-23T06:30:50.433Z,35.00
2019-04-23T06:33:22.267Z,33.30
2019-04-23T06:35:51.612Z,34.80
2019-04-23T06:40:51.935Z,34.60
2019-04-23T06:43:27.771Z,34.70
2019-04-23T06:45:53.159Z,32.50
2019-04-23T06:48:27.666Z,30.90
2019-04-23T06:51:09.322Z,32.10
2019-04-23T06:53:27.116Z,30.00
2019-04-23T06:56:06.715Z,29.40
2019-04-23T07:01:05.275Z,31.40
2019-04-23T07:16:14.692Z,31.40
2019-04-23T07:18:48.914Z,34.50
2019-04-23T07:26:30.451Z,31.60
2019-04-23T07:28:56.135Z,32.50
2019-04-23T07:31:44.636Z,31.80
2019-04-23T07:36:35.581Z,34.50
2019-04-23T07:39:16.048Z,32.80
2019-04-23T07:41:55.982Z,32.10
2019-04-23T07:44:36.849Z,32.00
2019-04-23T07:47:11.688Z,30.40
2019-04-23T07:49:34.207Z,31.20
2019-04-23T07:52:10.980Z,29.80
2019-04-23T07:54:42.448Z,32.10
2019-04-23T07:57:21.844Z,29.40
2019-04-23T07:59:43.930Z,30.10
2019-04-23T08:02:14.134Z,30.00
2019-04-23T08:04:53.055Z,31.90
2019-04-23T08:07:15.004Z,31.10
2019-04-23T08:09:48.579Z,31.70
2019-04-23T08:12:19.392Z,30.80
2019-04-23T08:14:46.912Z,30.60
2019-04-23T08:17:21.009Z,30.70
2019-04-23T08:22:33.446Z,30.90
2019-04-23T08:27:28.179Z,30.40
2019-04-23T08:29:55.728Z,29.60
2019-04-23T08:32:21.483Z,30.00
2019-04-23T08:35:01.256Z,31.90
2019-04-23T08:37:49.706Z,29.20
2019-04-23T08:40:09.850Z,30.40
2019-04-23T08:42:46.776Z,28.60
2019-04-23T08:45:28.002Z,28.60
2019-04-23T08:48:09.276Z,29.80
2019-04-23T08:53:24.752Z,28.50
2019-04-23T08:55:46.350Z,28.70
2019-04-23T08:58:14.420Z,28.30
2019-04-23T09:03:33.307Z,28.50
2019-04-23T09:08:20.328Z,29.10
2019-04-23T09:10:56.261Z,28.70
2019-04-23T09:13:49.911Z,29.80
2019-04-23T09:15:55.485Z,29.00
2019-04-23T09:18:27.856Z,29.40
2019-04-23T09:20:59.715Z,28.40
2019-04-23T09:23:34.417Z,28.00
2019-04-23T09:25:57.650Z,28.10
2019-04-23T09:28:42.149Z,28.80
2019-04-23T09:31:11.536Z,28.60
2019-04-23T09:33:52.137Z,28.10
2019-04-23T09:36:45.245Z,29.20
2019-04-23T09:39:12.821Z,29.10
2019-04-23T09:41:38.202Z,28.80
2019-04-23T09:44:42.631Z,28.70
2019-04-23T09:47:06.857Z,27.90
2019-04-23T09:49:33.242Z,27.50
2019-04-23T09:52:07.226Z,26.70
2019-04-23T09:54:40.237Z,27.20
2019-04-23T09:57:06.148Z,27.40
2019-04-23T10:02:04.244Z,27.30
2019-04-23T10:04:28.222Z,26.30
2019-04-23T10:07:01.669Z,26.40
2019-04-23T10:09:18.428Z,27.20
2019-04-23T10:11:49.307Z,25.70
2019-04-23T10:14:18.866Z,26.20
2019-04-23T10:16:49.373Z,26.40
2019-04-23T10:19:19.311Z,25.00
2019-04-23T10:21:49.186Z,26.30
2019-04-23T10:24:19.292Z,27.20
2019-04-23T10:26:50.365Z,27.00
2019-04-23T10:29:23.601Z,27.40
2019-04-23T10:31:53.845Z,26.90
2019-04-23T10:34:25.208Z,25.60
2019-04-23T10:36:55.635Z,27.60
2019-04-23T10:39:30.362Z,25.00
2019-04-23T10:41:57.656Z,25.80
2019-04-23T10:44:32.738Z,25.30
2019-04-23T10:47:45.335Z,24.50
2019-04-23T10:50:35.602Z,26.20
2019-04-23T10:53:10.217Z,25.00
2019-04-23T10:55:44.770Z,25.20
2019-04-23T10:58:08.427Z,25.70
2019-04-23T11:00:36.090Z,25.60
2019-04-23T11:03:20.615Z,24.30
2019-04-23T11:05:52.199Z,25.20
2019-04-23T11:08:13.176Z,23.00
2019-04-23T11:10:45.513Z,23.40
2019-04-23T11:13:25.629Z,22.20
2019-04-23T11:18:24.118Z,23.30
2019-04-23T11:20:47.952Z,22.60
2019-04-23T11:23:29.186Z,23.40
2019-04-23T11:25:58.957Z,22.20
2019-04-23T11:28:36.273Z,22.00
2019-04-23T11:31:15.673Z,21.70
2019-04-23T11:33:46.358Z,23.10
2019-04-23T11:38:54.729Z,23.10
2019-04-23T11:41:22.623Z,21.50
2019-04-23T11:44:02.305Z,23.60
2019-04-23T11:46:32.537Z,21.90
2019-04-23T11:49:02.450Z,21.80
2019-04-23T11:56:35.495Z,22.70
2019-04-23T11:58:54.166Z,23.00
2019-04-23T12:01:49.900Z,20.60
2019-04-23T12:04:18.651Z,21.50
2019-04-23T12:06:50.236Z,20.80
2019-04-23T12:09:25.918Z,21.00
2019-04-23T12:12:08.116Z,21.10
2019-04-23T12:17:15.350Z,21.10
2019-04-23T12:22:16.445Z,19.50
2019-04-23T12:25:02.275Z,21.90
2019-04-23T12:27:27.549Z,21.50
2019-04-23T12:29:49.153Z,20.10
2019-04-23T12:35:04.264Z,22.50
2019-04-23T12:45:22.037Z,22.10
2019-04-23T12:47:49.192Z,20.60
2019-04-23T12:50:41.859Z,21.20
2019-04-23T12:52:40.636Z,20.30
2019-04-23T12:55:22.385Z,20.20
2019-04-23T12:58:03.268Z,20.30
2019-04-23T13:00:22.544Z,19.70
2019-04-23T13:03:02.791Z,19.20
2019-04-23T13:05:31.486Z,18.90
2019-04-23T13:08:00.565Z,20.20
2019-04-23T13:10:27.917Z,20.10
2019-04-23T13:13:01.322Z,17.90
2019-04-23T13:15:29.401Z,20.80
2019-04-23T13:20:33.582Z,19.20
2019-04-23T13:23:15.375Z,18.70
2019-04-23T13:28:28.069Z,18.60
2019-04-23T13:33:30.762Z,20.00
2019-04-23T13:38:28.544Z,19.90
2019-04-23T13:48:23.329Z,19.10
2019-04-23T13:56:06.237Z,22.60
2019-04-23T13:58:38.790Z,22.10
2019-04-23T14:03:40.582Z,20.60
2019-04-23T14:06:24.491Z,19.80
2019-04-23T14:21:25.217Z,21.40
2019-04-23T14:26:33.962Z,19.40
2019-04-23T14:28:57.046Z,19.50
2019-04-23T14:31:24.948Z,18.80
2019-04-23T14:34:04.945Z,20.70
2019-04-23T14:39:18.786Z,20.30
2019-04-23T14:41:27.173Z,20.90
2019-04-23T14:44:10.413Z,21.40
2019-04-23T14:49:25.913Z,22.70
2019-04-23T14:51:47.479Z,21.30
2019-04-23T14:54:35.871Z,22.80
2019-04-23T14:57:03.180Z,22.30
2019-04-23T14:59:13.589Z,21.10
2019-04-23T15:04:36.028Z,21.80
2019-04-23T15:07:07.550Z,21.70
2019-04-23T15:14:46.513Z,21.80
2019-04-23T15:17:13.152Z,21.90
2019-04-23T15:22:30.714Z,23.20
2019-04-23T15:25:07.013Z,23.70
2019-04-23T15:29:47.581Z,22.90
2019-04-23T15:32:24.161Z,21.70
2019-04-23T15:37:41.527Z,23.50
2019-04-23T15:40:04.048Z,23.60
2019-04-23T15:45:00.973Z,23.70
2019-04-23T15:50:10.540Z,22.40
2019-04-23T15:52:47.981Z,22.60
2019-04-23T15:55:06.041Z,24.80
2019-04-23T15:58:00.910Z,25.20
2019-04-23T16:00:10.839Z,23.50
2019-04-23T16:02:14.132Z,24.70
2019-04-23T16:04:46.981Z,23.40
2019-04-23T16:07:39.367Z,23.90
2019-04-23T16:12:58.396Z,24.10
2019-04-23T16:15:21.970Z,25.70
2019-04-23T16:18:07.831Z,25.30
2019-04-23T16:20:40.486Z,25.70
2019-04-23T16:22:55.351Z,25.80
2019-04-23T16:25:32.419Z,25.00
2019-04-23T16:30:59.786Z,25.50
2019-04-23T16:35:51.702Z,24.70
2019-04-23T16:38:23.166Z,24.80
2019-04-23T16:41:00.687Z,24.60
2019-04-23T16:43:19.809Z,25.30
2019-04-23T16:45:57.798Z,25.60
2019-04-23T16:53:29.932Z,25.60
2019-04-23T16:56:04.216Z,25.70
2019-04-23T17:01:06.062Z,26.30
2019-04-23T17:06:08.584Z,27.90
2019-04-23T17:11:10.160Z,27.40
2019-04-23T17:13:40.196Z,28.10
2019-04-23T17:16:18.247Z,28.10
2019-04-23T17:18:41.707Z,28.00
2019-04-23T17:23:50.318Z,27.70
2019-04-23T17:26:20.535Z,28.50
2019-04-23T17:28:47.464Z,28.30
2019-04-23T17:31:35.629Z,28.60
2019-04-23T17:33:49.674Z,29.70
2019-04-23T17:42:01.451Z,28.80
2019-04-23T17:44:38.286Z,29.70
2019-04-23T17:47:02.710Z,31.50
2019-04-23T17:49:24.872Z,29.50
2019-04-23T17:51:56.067Z,31.80
2019-04-23T17:54:51.800Z,30.00
2019-04-23T18:00:08.327Z,32.00
2019-04-23T18:05:02.604Z,29.90
2019-04-23T18:07:46.451Z,31.20
2019-04-23T18:10:17.546Z,30.30
2019-04-23T18:17:35.448Z,30.40
2019-04-23T18:20:13.053Z,29.70
2019-04-23T18:22:46.897Z,32.50
2019-04-23T18:25:32.375Z,31.90
2019-04-23T18:27:50.933Z,31.70
2019-04-23T18:30:44.642Z,32.80
2019-04-23T18:33:49.088Z,33.90
2019-04-23T18:35:43.941Z,32.50
2019-04-23T18:38:29.024Z,32.00
2019-04-23T18:43:37.121Z,33.20
2019-04-23T18:56:11.376Z,33.80
2019-04-23T18:58:52.520Z,32.70
2019-04-23T19:01:27.907Z,33.70
2019-04-23T19:04:00.366Z,33.70
2019-04-23T19:09:13.904Z,32.90
2019-04-23T19:11:53.145Z,33.10
2019-04-23T19:14:19.957Z,36.40
2019-04-23T19:19:28.577Z,35.60
2019-04-23T19:22:14.356Z,35.50
2019-04-23T19:24:28.633Z,36.00
2019-04-23T19:29:35.985Z,35.70
2019-04-23T19:31:56.793Z,37.50
2019-04-23T19:34:46.906Z,36.70
2019-04-23T19:37:02.671Z,35.50
2019-04-23T19:39:48.483Z,36.80
2019-04-23T19:42:17.976Z,37.90
2019-04-23T19:44:45.597Z,38.10
2019-04-23T19:49:41.811Z,37.00
2019-04-23T19:52:18.756Z,37.40
2019-04-23T19:54:56.666Z,38.80
2019-04-23T19:57:19.376Z,36.80
2019-04-23T19:59:50.581Z,37.30
2019-04-23T20:02:38.606Z,38.60
2019-04-23T20:09:51.686Z,38.00
2019-04-23T20:12:29.344Z,37.10
2019-04-23T20:14:58.240Z,38.20
2019-04-23T20:17:37.766Z,37.40
2019-04-23T20:20:02.925Z,38.60
2019-04-23T20:22:41.814Z,36.80
2019-04-23T20:25:20.890Z,39.00
2019-04-23T20:27:45.227Z,37.20
2019-04-23T20:35:35.233Z,38.30
2019-04-23T20:40:43.194Z,39.50
2019-04-23T20:43:07.645Z,38.10
2019-04-23T20:48:32.509Z,38.70
2019-04-23T20:50:44.418Z,39.40
2019-04-23T20:53:15.773Z,37.50
2019-04-23T20:56:01.481Z,38.00
2019-04-23T20:58:26.442Z,37.60
2019-04-23T21:01:06.910Z,36.60
2019-04-23T21:06:09.834Z,36.40
2019-04-23T21:11:05.396Z,35.70
2019-04-23T21:16:13.104Z,35.90
2019-04-23T21:18:44.329Z,36.30
2019-04-23T21:21:18.169Z,35.50
2019-04-23T21:23:50.767Z,36.50
2019-04-23T21:26:08.323Z,36.30
2019-04-23T21:28:47.503Z,36.90
2019-04-23T21:31:19.488Z,36.90
2019-04-23T21:34:06.004Z,37.00
2019-04-23T21:40:28.611Z,36.70
2019-04-23T21:44:11.937Z,37.20
2019-04-23T21:46:54.152Z,38.10
2019-04-23T21:49:25.252Z,39.80
2019-04-23T21:51:49.314Z,38.10
2019-04-23T21:54:15.199Z,38.60
2019-04-23T21:59:17.575Z,39.20
2019-04-23T22:02:13.420Z,39.80
2019-04-23T22:04:35.736Z,38.70
2019-04-23T22:09:39.017Z,41.90
2019-04-23T22:14:40.004Z,40.80
2019-04-23T22:17:10.005Z,43.80
2019-04-23T22:19:42.164Z,43.40
2019-04-23T22:22:12.960Z,43.50
2019-04-23T22:27:11.750Z,43.50
2019-04-23T22:29:44.809Z,45.00
2019-04-23T22:32:12.289Z,44.90
2019-04-23T22:34:55.666Z,46.00
2019-04-23T22:39:52.433Z,47.00
2019-04-23T22:42:41.216Z,44.50
2019-04-23T22:45:40.613Z,43.00
2019-04-23T22:47:28.200Z,45.50
2019-04-23T22:50:02.556Z,43.60
2019-04-23T22:52:48.515Z,43.70
2019-04-23T22:55:07.953Z,44.20
2019-04-23T22:57:55.996Z,44.80
2019-04-23T23:00:13.488Z,44.70
2019-04-23T23:02:58.299Z,44.70
2019-04-23T23:06:09.212Z,44.20
2019-04-23T23:08:13.443Z,44.70
2019-04-23T23:10:51.956Z,45.20
2019-04-23T23:13:20.663Z,45.30
2019-04-23T23:15:53.350Z,44.80
2019-04-23T23:23:21.518Z,45.80
2019-04-23T23:26:02.855Z,45.50
2019-04-23T23:33:35.820Z,46.20
2019-04-23T23:36:05.854Z,46.90
2019-04-23T23:38:41.587Z,47.60
2019-04-23T23:43:41.788Z,47.00
2019-04-23T23:46:27.698Z,47.90
2019-04-23T23:48:42.329Z,48.30
2019-04-23T23:54:02.275Z,48.70
2019-04-23T23:56:14.300Z,49.30
